createdAt,value
2018-09-17T00:00:58.282Z,26.30
2018-09-17T00:03:27.665Z,27.33
2018-09-17T00:05:57.106Z,26.37
2018-09-17T00:08:26.313Z,26.20
2018-09-17T00:10:55.536Z,25.40
2018-09-17T00:13:24.921Z,25.67
2018-09-17T00:15:54.528Z,27.20
2018-09-17T00:18:25.237Z,27.10
2018-09-17T00:20:54.492Z,26.00
2018-09-17T00:23:23.698Z,25.10
2018-09-17T00:25:53.143Z,26.30
2018-09-17T00:28:22.488Z,26.00
2018-09-17T00:30:51.909Z,27.50
2018-09-17T00:33:21.645Z,26.60
2018-09-17T00:35:50.922Z,27.00
2018-09-17T00:38:20.272Z,27.27
2018-09-17T00:40:49.572Z,27.87
2018-09-17T00:43:18.989Z,26.03
2018-09-17T00:45:48.263Z,27.00
2018-09-17T00:48:17.483Z,25.93
2018-09-17T00:50:46.808Z,27.53
2018-09-17T00:53:17.877Z,26.33
2018-09-17T00:55:47.151Z,27.07
2018-09-17T00:58:16.756Z,26.83
2018-09-17T01:00:46.129Z,25.97
2018-09-17T01:03:15.440Z,30.23
2018-09-17T01:05:45.159Z,28.53
2018-09-17T01:08:14.629Z,28.33
2018-09-17T01:10:43.992Z,29.23
2018-09-17T01:13:13.400Z,28.03
2018-09-17T01:15:42.800Z,27.63
2018-09-17T01:18:12.109Z,26.50
2018-09-17T01:20:41.438Z,26.70
2018-09-17T01:23:10.950Z,27.67
2018-09-17T01:25:40.228Z,24.50
2018-09-17T01:28:09.561Z,27.23
2018-09-17T01:30:38.927Z,26.63
2018-09-17T01:33:08.233Z,27.30
2018-09-17T01:35:37.732Z,25.90
2018-09-17T01:38:06.942Z,27.77
2018-09-17T01:40:36.224Z,28.27
2018-09-17T01:43:05.793Z,28.60
2018-09-17T01:45:35.182Z,26.17
2018-09-17T01:48:04.494Z,28.37
2018-09-17T01:50:33.790Z,26.63
2018-09-17T01:53:03.458Z,27.10
2018-09-17T01:55:32.789Z,25.87
2018-09-17T01:58:02.093Z,26.70
2018-09-17T02:00:31.498Z,25.50
2018-09-17T02:03:00.816Z,27.67
2018-09-17T02:05:30.206Z,26.60
2018-09-17T02:07:59.534Z,26.63
2018-09-17T02:10:30.472Z,26.73
2018-09-17T02:13:00.130Z,26.87
2018-09-17T02:15:29.485Z,27.80
2018-09-17T02:17:58.837Z,26.90
2018-09-17T02:20:28.123Z,25.47
2018-09-17T02:22:57.415Z,26.10
2018-09-17T02:25:26.792Z,28.20
2018-09-17T02:27:56.383Z,27.10
2018-09-17T02:30:25.637Z,29.20
2018-09-17T02:32:54.931Z,28.33
2018-09-17T02:35:24.358Z,28.27
2018-09-17T02:37:53.651Z,28.60
2018-09-17T02:40:22.969Z,27.70
2018-09-17T02:42:52.314Z,25.70
2018-09-17T02:45:21.821Z,27.63
2018-09-17T02:47:51.820Z,29.93
2018-09-17T02:50:21.383Z,29.67
2018-09-17T02:52:50.741Z,32.67
2018-09-17T02:55:19.934Z,31.43
2018-09-17T02:57:49.318Z,32.03
2018-09-17T03:00:20.658Z,32.33
2018-09-17T03:02:51.718Z,33.60
2018-09-17T03:05:20.998Z,34.67
2018-09-17T03:07:50.282Z,32.33
2018-09-17T03:10:19.537Z,30.17
2018-09-17T03:12:48.810Z,34.17
2018-09-17T03:15:29.141Z,34.57
2018-09-17T03:17:58.698Z,31.37
2018-09-17T03:20:28.023Z,30.47
2018-09-17T03:22:57.592Z,30.80
2018-09-17T03:25:26.918Z,31.10
2018-09-17T03:27:56.205Z,30.30
2018-09-17T03:30:25.518Z,30.60
2018-09-17T03:32:54.817Z,28.00
2018-09-17T03:35:24.068Z,27.00
2018-09-17T03:37:53.733Z,25.60
2018-09-17T03:40:23.040Z,25.17
2018-09-17T03:42:52.387Z,26.17
2018-09-17T03:45:21.716Z,24.70
2018-09-17T03:47:51.016Z,25.30
2018-09-17T03:50:20.345Z,25.10
2018-09-17T03:52:49.577Z,25.87
2018-09-17T03:55:18.806Z,24.53
2018-09-17T03:57:48.202Z,25.70
2018-09-17T04:00:17.874Z,26.13
2018-09-17T04:02:47.233Z,26.50
2018-09-17T04:05:17.213Z,25.53
2018-09-17T04:07:46.558Z,24.40
2018-09-17T04:10:15.839Z,26.63
2018-09-17T04:12:45.121Z,26.07
2018-09-17T04:15:14.417Z,27.03
2018-09-17T04:17:43.837Z,29.40
2018-09-17T04:20:13.085Z,28.87
2018-09-17T04:22:43.671Z,30.40
2018-09-17T04:25:13.807Z,28.33
2018-09-17T04:27:43.029Z,29.37
2018-09-17T04:30:12.819Z,28.30
2018-09-17T04:32:42.280Z,28.30
2018-09-17T04:35:11.648Z,27.97
2018-09-17T04:37:41.028Z,28.33
2018-09-17T04:40:10.278Z,26.87
2018-09-17T04:42:39.677Z,26.37
2018-09-17T04:45:09.217Z,26.03
2018-09-17T04:47:38.462Z,26.60
2018-09-17T04:50:07.812Z,28.13
2018-09-17T04:52:37.188Z,25.83
2018-09-17T04:55:06.623Z,28.77
2018-09-17T04:57:35.813Z,30.33
2018-09-17T05:00:05.156Z,27.93
2018-09-17T05:02:34.429Z,27.13
2018-09-17T05:05:03.757Z,29.00
2018-09-17T05:07:32.970Z,28.20
2018-09-17T05:10:02.345Z,30.00
2018-09-17T05:12:31.581Z,31.97
2018-09-17T05:15:01.045Z,30.00
2018-09-17T05:17:30.399Z,30.90
2018-09-17T05:19:59.662Z,35.33
2018-09-17T05:22:28.978Z,32.50
2018-09-17T05:24:59.024Z,34.90
2018-09-17T05:27:28.494Z,36.77
2018-09-17T05:29:57.749Z,36.63
2018-09-17T05:32:27.318Z,35.60
2018-09-17T05:34:56.622Z,33.33
2018-09-17T05:37:27.177Z,32.07
2018-09-17T05:39:56.438Z,32.00
2018-09-17T05:42:25.728Z,30.57
2018-09-17T05:44:57.103Z,29.90
2018-09-17T05:47:26.627Z,26.43
2018-09-17T05:49:55.862Z,26.93
2018-09-17T05:52:25.088Z,29.27
2018-09-17T05:54:54.382Z,30.07
2018-09-17T05:57:23.601Z,27.73
2018-09-17T05:59:52.944Z,29.27
2018-09-17T06:02:22.262Z,26.73
2018-09-17T06:04:51.554Z,30.47
2018-09-17T06:07:20.881Z,29.13
2018-09-17T06:09:50.677Z,28.53
2018-09-17T06:12:21.266Z,28.40
2018-09-17T06:14:50.482Z,29.57
2018-09-17T06:17:19.831Z,30.40
2018-09-17T06:19:49.184Z,31.37
2018-09-17T06:22:19.753Z,32.60
2018-09-17T06:24:49.046Z,31.77
2018-09-17T06:27:18.368Z,31.90
2018-09-17T06:29:48.204Z,31.10
2018-09-17T06:32:17.389Z,33.07
2018-09-17T06:34:46.673Z,35.90
2018-09-17T06:37:15.965Z,33.60
2018-09-17T06:39:45.994Z,33.33
2018-09-17T06:42:16.121Z,32.87
2018-09-17T06:44:45.467Z,31.90
2018-09-17T06:47:14.721Z,34.63
2018-09-17T06:49:43.912Z,34.90
2018-09-17T06:52:13.376Z,31.50
2018-09-17T06:54:42.711Z,31.43
2018-09-17T06:57:12.001Z,30.60
2018-09-17T06:59:41.629Z,29.77
2018-09-17T07:02:10.958Z,30.37
2018-09-17T07:04:40.196Z,29.33
2018-09-17T07:07:10.423Z,29.90
2018-09-17T07:09:39.715Z,28.57
2018-09-17T07:12:09.026Z,29.70
2018-09-17T07:14:38.620Z,29.63
2018-09-17T07:17:08.974Z,29.70
2018-09-17T07:19:38.265Z,28.80
2018-09-17T07:22:07.547Z,28.97
2018-09-17T07:24:36.938Z,30.20
2018-09-17T07:27:06.342Z,29.80
2018-09-17T07:29:36.071Z,30.03
2018-09-17T07:32:05.334Z,30.90
2018-09-17T07:34:34.665Z,30.83
2018-09-17T07:37:04.320Z,29.70
2018-09-17T07:39:33.704Z,30.83
2018-09-17T07:42:02.995Z,29.67
2018-09-17T07:44:32.298Z,28.73
2018-09-17T07:47:01.500Z,28.43
2018-09-17T07:49:30.834Z,28.77
2018-09-17T07:52:00.156Z,29.10
2018-09-17T07:54:29.277Z,27.90
2018-09-17T07:57:00.438Z,27.77
2018-09-17T07:59:29.726Z,28.10
2018-09-17T08:01:59.086Z,30.13
2018-09-17T08:04:28.409Z,26.10
2018-09-17T08:06:57.649Z,26.13
2018-09-17T08:09:26.849Z,27.00
2018-09-17T08:11:56.369Z,28.40
2018-09-17T08:14:25.670Z,25.90
2018-09-17T08:16:54.906Z,24.70
2018-09-17T08:19:24.847Z,25.87
2018-09-17T08:21:54.261Z,27.87
2018-09-17T08:24:24.453Z,25.60
2018-09-17T08:26:53.782Z,26.97
2018-09-17T08:29:22.984Z,27.80
2018-09-17T08:31:53.658Z,25.30
2018-09-17T08:34:23.064Z,24.57
2018-09-17T08:36:52.380Z,24.10
2018-09-17T08:39:21.588Z,24.50
2018-09-17T08:41:50.868Z,24.50
2018-09-17T08:44:20.510Z,27.03
2018-09-17T08:46:49.818Z,24.50
2018-09-17T08:49:19.098Z,23.50
2018-09-17T08:51:48.396Z,24.53
2018-09-17T08:54:17.589Z,23.73
2018-09-17T08:56:59.213Z,24.97
2018-09-17T08:59:33.855Z,23.97
2018-09-17T09:02:08.581Z,26.10
2018-09-17T09:04:43.013Z,25.10
2018-09-17T09:08:15.369Z,23.90
2018-09-17T09:10:48.615Z,24.23
2018-09-17T09:13:19.914Z,22.60
2018-09-17T09:15:49.241Z,21.93
2018-09-17T09:18:18.472Z,21.27
2018-09-17T09:20:47.733Z,22.40
2018-09-17T09:23:16.921Z,23.00
2018-09-17T09:25:46.122Z,21.33
2018-09-17T09:28:15.443Z,23.10
2018-09-17T09:30:44.670Z,22.20
2018-09-17T09:33:13.943Z,20.43
2018-09-17T09:35:43.256Z,21.13
2018-09-17T09:38:12.452Z,20.03
2018-09-17T09:40:41.686Z,20.57
2018-09-17T09:43:10.929Z,18.93
2018-09-17T09:45:40.185Z,21.63
2018-09-17T09:48:09.406Z,21.93
2018-09-17T09:51:00.817Z,19.33
2018-09-17T09:53:33.509Z,16.60
2018-09-17T09:56:03.104Z,19.33
2018-09-17T09:58:44.333Z,19.33
2018-09-17T10:01:18.934Z,17.60
2018-09-17T10:03:52.351Z,18.67
2018-09-17T10:06:21.553Z,19.40
2018-09-17T10:08:56.133Z,19.53
2018-09-17T10:11:30.742Z,20.57
2018-09-17T10:15:06.733Z,18.93
2018-09-17T10:17:41.164Z,20.00
2018-09-17T10:20:10.409Z,18.27
2018-09-17T10:22:39.698Z,22.03
2018-09-17T10:25:09.093Z,21.00
2018-09-17T10:27:38.418Z,20.27
2018-09-17T10:30:07.569Z,20.10
2018-09-17T10:32:36.833Z,18.37
2018-09-17T10:35:06.438Z,20.47
2018-09-17T10:37:35.556Z,19.60
2018-09-17T10:40:04.857Z,19.10
2018-09-17T10:42:34.110Z,18.33
2018-09-17T10:45:03.315Z,16.50
2018-09-17T10:47:32.670Z,17.17
2018-09-17T10:50:01.837Z,14.90
2018-09-17T10:52:31.123Z,14.17
2018-09-17T10:55:00.361Z,14.60
2018-09-17T10:57:29.681Z,14.10
2018-09-17T10:59:58.933Z,11.90
2018-09-17T11:02:28.133Z,14.27
2018-09-17T11:04:57.364Z,12.83
2018-09-17T11:07:26.778Z,11.97
2018-09-17T11:09:55.924Z,11.97
2018-09-17T11:12:25.139Z,13.47
2018-09-17T11:14:54.310Z,12.20
2018-09-17T11:17:23.761Z,13.30
2018-09-17T11:19:52.981Z,11.20
2018-09-17T11:22:22.222Z,12.97
2018-09-17T11:24:51.480Z,12.03
2018-09-17T11:27:20.831Z,12.40
2018-09-17T11:29:50.032Z,12.70
2018-09-17T11:32:19.381Z,13.77
2018-09-17T11:34:48.588Z,12.40
2018-09-17T11:37:18.312Z,12.17
2018-09-17T11:39:47.516Z,11.50
2018-09-17T11:42:16.653Z,10.50
2018-09-17T11:44:45.922Z,10.10
2018-09-17T11:47:15.232Z,9.60
2018-09-17T11:49:44.404Z,10.10
2018-09-17T11:52:13.529Z,9.20
2018-09-17T11:54:42.669Z,8.50
2018-09-17T11:57:11.817Z,8.87
2018-09-17T11:59:41.014Z,9.20
2018-09-17T12:02:14.400Z,7.90
2018-09-17T12:04:48.742Z,7.90
2018-09-17T12:07:23.259Z,8.30
2018-09-17T12:09:52.533Z,8.40
2018-09-17T12:12:21.690Z,8.13
2018-09-17T12:14:50.866Z,8.43
2018-09-17T12:17:20.018Z,8.40
2018-09-17T12:19:49.177Z,7.73
2018-09-17T12:22:18.349Z,8.40
2018-09-17T12:24:47.500Z,9.07
2018-09-17T12:27:16.695Z,8.37
2018-09-17T12:29:46.205Z,8.13
2018-09-17T12:32:15.470Z,8.90
2018-09-17T12:34:44.946Z,9.13
2018-09-17T12:37:14.534Z,8.40
2018-09-17T12:39:43.868Z,7.40
2018-09-17T12:42:13.031Z,7.50
2018-09-17T12:44:42.313Z,8.20
2018-09-17T12:47:11.490Z,8.00
2018-09-17T12:49:40.658Z,7.50
2018-09-17T12:52:09.852Z,6.83
2018-09-17T12:54:39.003Z,6.40
2018-09-17T12:57:08.466Z,6.50
2018-09-17T12:59:37.626Z,6.60
2018-09-17T13:02:06.788Z,6.80
2018-09-17T13:04:35.891Z,6.50
2018-09-17T13:07:05.062Z,5.93
2018-09-17T13:09:34.208Z,6.27
2018-09-17T13:12:03.402Z,6.63
2018-09-17T13:14:32.556Z,5.60
2018-09-17T13:17:01.721Z,6.43
2018-09-17T13:19:30.877Z,6.93
2018-09-17T13:22:00.038Z,6.90
2018-09-17T13:24:29.173Z,6.07
2018-09-17T13:26:58.338Z,6.60
2018-09-17T13:29:27.553Z,6.90
2018-09-17T13:31:57.202Z,7.13
2018-09-17T13:34:26.688Z,7.30
2018-09-17T13:36:55.956Z,7.30
2018-09-17T13:39:25.128Z,6.77
2018-09-17T13:41:54.304Z,6.17
2018-09-17T13:44:23.554Z,6.90
2018-09-17T13:46:52.686Z,6.40
2018-09-17T13:49:21.836Z,6.80
2018-09-17T13:51:51.238Z,6.60
2018-09-17T13:54:20.468Z,7.27
2018-09-17T13:56:49.740Z,6.70
2018-09-17T13:59:18.922Z,7.80
2018-09-17T14:01:48.307Z,6.63
2018-09-17T14:04:17.552Z,7.37
2018-09-17T14:06:46.713Z,6.50
2018-09-17T14:09:15.859Z,7.17
2018-09-17T14:11:44.999Z,6.53
2018-09-17T14:14:14.170Z,7.30
2018-09-17T14:16:43.415Z,6.40
2018-09-17T14:19:12.571Z,5.73
2018-09-17T14:21:41.813Z,6.10
2018-09-17T14:24:10.947Z,6.57
2018-09-17T14:26:40.062Z,5.97
2018-09-17T14:29:09.352Z,5.67
2018-09-17T14:31:43.866Z,6.50
2018-09-17T14:34:13.061Z,6.67
2018-09-17T14:36:42.174Z,7.43
2018-09-17T14:39:11.360Z,8.10
2018-09-17T14:41:40.490Z,7.30
2018-09-17T14:44:09.938Z,7.20
2018-09-17T14:46:39.029Z,6.10
2018-09-17T14:49:09.363Z,6.73
2018-09-17T14:51:38.551Z,6.70
2018-09-17T14:54:07.722Z,6.23
2018-09-17T14:56:36.916Z,6.27
2018-09-17T14:59:06.123Z,6.13
2018-09-17T15:01:35.386Z,6.13
2018-09-17T15:04:06.717Z,6.10
2018-09-17T15:06:35.854Z,6.83
2018-09-17T15:09:07.366Z,7.40
2018-09-17T15:11:36.557Z,6.87
2018-09-17T15:14:05.810Z,7.10
2018-09-17T15:16:35.017Z,6.83
2018-09-17T15:19:04.213Z,7.27
2018-09-17T15:21:33.515Z,7.90
2018-09-17T15:24:02.728Z,7.43
2018-09-17T15:26:31.951Z,8.23
2018-09-17T15:29:01.001Z,9.53
2018-09-17T15:31:30.243Z,9.67
2018-09-17T15:33:59.517Z,9.70
2018-09-17T15:36:29.543Z,8.60
2018-09-17T15:38:58.786Z,9.70
2018-09-17T15:41:28.218Z,9.83
2018-09-17T15:43:57.259Z,9.80
2018-09-17T15:46:26.457Z,10.70
2018-09-17T15:48:55.736Z,10.67
2018-09-17T15:51:24.935Z,10.60
2018-09-17T15:53:54.228Z,11.07
2018-09-17T15:56:23.539Z,10.30
2018-09-17T15:58:52.761Z,9.20
2018-09-17T16:01:22.016Z,10.00
2018-09-17T16:03:51.182Z,11.13
2018-09-17T16:06:20.380Z,10.67
2018-09-17T16:08:49.658Z,11.67
2018-09-17T16:11:18.747Z,11.23
2018-09-17T16:13:47.979Z,11.50
2018-09-17T16:16:17.535Z,11.17
2018-09-17T16:18:46.708Z,12.53
2018-09-17T16:21:15.934Z,11.70
2018-09-17T16:23:45.111Z,12.03
2018-09-17T16:26:15.194Z,12.90
2018-09-17T16:28:44.366Z,12.70
2018-09-17T16:31:13.528Z,13.77
2018-09-17T16:33:42.731Z,13.67
2018-09-17T16:36:11.871Z,13.23
2018-09-17T16:38:41.068Z,12.83
2018-09-17T16:41:10.257Z,13.30
2018-09-17T16:43:40.313Z,12.77
2018-09-17T16:46:09.794Z,14.30
2018-09-17T16:48:38.970Z,14.80
2018-09-17T16:51:08.493Z,14.13
2018-09-17T16:53:37.812Z,15.57
2018-09-17T16:56:06.795Z,15.13
2018-09-17T16:58:36.000Z,16.37
2018-09-17T17:01:05.208Z,15.80
2018-09-17T17:03:34.396Z,14.67
2018-09-17T17:06:03.565Z,15.37
2018-09-17T17:08:32.748Z,15.27
2018-09-17T17:11:01.934Z,16.57
2018-09-17T17:13:31.335Z,15.00
2018-09-17T17:16:00.604Z,15.90
2018-09-17T17:18:29.752Z,16.60
2018-09-17T17:20:59.017Z,16.03
2018-09-17T17:23:28.279Z,16.80
2018-09-17T17:25:57.491Z,16.87
2018-09-17T17:28:27.404Z,17.70
2018-09-17T17:30:56.579Z,16.90
2018-09-17T17:33:25.721Z,17.07
2018-09-17T17:35:54.987Z,17.20
2018-09-17T17:38:24.202Z,16.80
2018-09-17T17:40:54.244Z,14.63
2018-09-17T17:43:23.369Z,15.27
2018-09-17T17:45:52.571Z,15.20
2018-09-17T17:48:21.769Z,15.20
2018-09-17T17:50:51.026Z,16.37
2018-09-17T17:53:20.261Z,15.90
2018-09-17T17:55:49.499Z,15.63
2018-09-17T17:58:18.759Z,16.00
2018-09-17T18:00:47.930Z,14.50
2018-09-17T18:03:17.143Z,15.43
2018-09-17T18:05:46.439Z,16.20
2018-09-17T18:08:15.620Z,15.00
2018-09-17T18:10:44.821Z,15.30
2018-09-17T18:13:15.279Z,15.37
2018-09-17T18:15:44.432Z,15.10
2018-09-17T18:18:13.616Z,15.63
2018-09-17T18:20:43.029Z,15.67
2018-09-17T18:23:12.205Z,15.03
2018-09-17T18:25:41.393Z,16.30
2018-09-17T18:28:10.750Z,15.30
2018-09-17T18:30:40.436Z,14.70
2018-09-17T18:33:09.749Z,14.07
2018-09-17T18:35:38.945Z,13.93
2018-09-17T18:38:08.139Z,14.30
2018-09-17T18:40:37.355Z,13.03
2018-09-17T18:43:06.816Z,13.10
2018-09-17T18:45:36.009Z,13.70
2018-09-17T18:48:05.257Z,14.27
2018-09-17T18:50:34.536Z,14.60
2018-09-17T18:53:03.782Z,14.07
2018-09-17T18:55:32.933Z,13.07
2018-09-17T18:58:02.196Z,13.43
2018-09-17T19:00:31.445Z,15.20
2018-09-17T19:03:00.625Z,14.30
2018-09-17T19:05:29.863Z,13.90
2018-09-17T19:07:59.066Z,14.70
2018-09-17T19:10:28.174Z,14.70
2018-09-17T19:12:57.360Z,13.17
2018-09-17T19:15:35.370Z,14.07
2018-09-17T19:18:09.895Z,14.13
2018-09-17T19:20:39.213Z,14.80
2018-09-17T19:23:13.425Z,13.90
2018-09-17T19:25:42.673Z,13.93
2018-09-17T19:28:17.226Z,14.80
2018-09-17T19:30:46.377Z,15.30
2018-09-17T19:33:17.061Z,15.23
2018-09-17T19:35:46.236Z,14.73
2018-09-17T19:38:20.877Z,15.10
2018-09-17T19:40:50.025Z,14.10
2018-09-17T19:43:19.259Z,14.73
2018-09-17T19:45:53.880Z,15.40
2018-09-17T19:48:23.180Z,17.07
2018-09-17T19:50:57.638Z,16.83
2018-09-17T19:53:26.817Z,14.60
2018-09-17T19:55:56.065Z,16.67
2018-09-17T19:58:30.566Z,14.67
2018-09-17T20:00:59.825Z,15.60
2018-09-17T20:03:28.917Z,16.50
2018-09-17T20:06:03.386Z,15.10
2018-09-17T20:08:32.573Z,16.23
2018-09-17T20:11:01.748Z,16.63
2018-09-17T20:13:30.977Z,14.37
2018-09-17T20:16:01.320Z,16.20
2018-09-17T20:18:31.496Z,16.73
2018-09-17T20:21:00.785Z,16.47
2018-09-17T20:23:30.098Z,16.57
2018-09-17T20:25:59.602Z,18.57
2018-09-17T20:28:28.822Z,17.20
2018-09-17T20:30:58.473Z,17.80
2018-09-17T20:33:31.119Z,18.77
2018-09-17T20:36:00.416Z,19.70
2018-09-17T20:38:29.960Z,20.17
2018-09-17T20:40:59.139Z,26.90
2018-09-17T20:43:28.253Z,28.20
2018-09-17T20:45:57.435Z,27.90
2018-09-17T20:48:26.684Z,29.23
2018-09-17T20:50:56.058Z,29.17
2018-09-17T20:53:25.265Z,28.00
2018-09-17T20:55:54.441Z,27.80
2018-09-17T20:58:23.646Z,27.00
2018-09-17T21:00:52.902Z,26.20
2018-09-17T21:03:22.105Z,26.20
2018-09-17T21:05:51.248Z,24.73
2018-09-17T21:08:20.403Z,23.50
2018-09-17T21:10:49.606Z,27.00
2018-09-17T21:13:18.829Z,25.03
2018-09-17T21:15:47.982Z,24.97
2018-09-17T21:18:17.211Z,25.17
2018-09-17T21:20:46.435Z,24.20
2018-09-17T21:23:15.593Z,23.00
2018-09-17T21:25:44.788Z,24.10
2018-09-17T21:28:14.022Z,24.07
2018-09-17T21:30:43.218Z,23.43
2018-09-17T21:33:12.391Z,23.63
2018-09-17T21:35:41.573Z,23.37
2018-09-17T21:38:10.784Z,22.43
2018-09-17T21:40:39.970Z,23.40
2018-09-17T21:43:09.447Z,23.97
2018-09-17T21:45:38.593Z,24.80
2018-09-17T21:48:08.555Z,25.90
2018-09-17T21:50:37.685Z,23.80
2018-09-17T21:53:07.198Z,25.27
2018-09-17T21:55:36.434Z,22.07
2018-09-17T21:58:05.794Z,25.17
2018-09-17T22:00:40.254Z,23.97
2018-09-17T22:03:09.578Z,24.87
2018-09-17T22:05:39.147Z,26.03
2018-09-17T22:08:08.394Z,25.30
2018-09-17T22:10:38.412Z,25.57
2018-09-17T22:13:07.833Z,24.93
2018-09-17T22:15:37.019Z,24.77
2018-09-17T22:18:06.241Z,23.90
2018-09-17T22:20:35.619Z,24.00
2018-09-17T22:23:04.824Z,26.10
2018-09-17T22:25:34.228Z,24.20
2018-09-17T22:28:03.749Z,24.07
2018-09-17T22:30:32.949Z,24.23
2018-09-17T22:33:02.166Z,25.13
2018-09-17T22:35:31.316Z,24.90
2018-09-17T22:38:00.641Z,27.80
2018-09-17T22:40:29.861Z,26.97
2018-09-17T22:42:59.029Z,24.83
2018-09-17T22:45:28.414Z,25.53
2018-09-17T22:47:57.682Z,25.43
2018-09-17T22:50:37.336Z,26.77
2018-09-17T22:53:08.004Z,25.43
2018-09-17T22:55:40.993Z,25.53
2018-09-17T22:58:10.253Z,24.67
2018-09-17T23:00:39.430Z,24.80
2018-09-17T23:03:08.872Z,25.30
2018-09-17T23:05:38.153Z,22.53
2018-09-17T23:08:07.645Z,23.10
2018-09-17T23:10:36.893Z,22.80
2018-09-17T23:13:06.210Z,24.30
2018-09-17T23:15:35.532Z,25.07
2018-09-17T23:18:04.709Z,22.97
2018-09-17T23:20:33.917Z,23.97
2018-09-17T23:23:03.090Z,25.57
2018-09-17T23:25:32.290Z,24.30
2018-09-17T23:28:01.501Z,25.70
2018-09-17T23:30:30.769Z,25.40
2018-09-17T23:33:00.025Z,24.93
2018-09-17T23:35:29.215Z,24.53
2018-09-17T23:37:58.448Z,25.17
2018-09-17T23:40:27.684Z,24.47
2018-09-17T23:42:56.976Z,23.47
2018-09-17T23:45:29.755Z,24.63
2018-09-17T23:47:59.260Z,24.20
2018-09-17T23:50:28.472Z,23.60
2018-09-17T23:52:57.688Z,25.83
2018-09-17T23:55:26.880Z,24.30
2018-09-17T23:57:56.069Z,24.40
